sensor_id;sensor_type;location;lat;lon;timestamp;pressure;altitude;pressure_sealevel;temperature;humidity
59190;BME280;50749;51.636;4.948;2023-05-08T00:02:04;102106.84;;;19.97;61.64
59190;BME280;50749;51.636;4.948;2023-05-08T00:04:30;102096.53;;;19.98;61.64
59190;BME280;50749;51.636;4.948;2023-05-08T00:06:56;102094.91;;;19.97;61.57
59190;BME280;50749;51.636;4.948;2023-05-08T00:09:22;102098.03;;;19.95;61.85
59190;BME280;50749;51.636;4.948;2023-05-08T00:11:47;102090.88;;;19.94;61.96
59190;BME280;50749;51.636;4.948;2023-05-08T00:14:14;102092.81;;;19.94;61.85
59190;BME280;50749;51.636;4.948;2023-05-08T00:16:39;102082.09;;;19.92;61.42
59190;BME280;50749;51.636;4.948;2023-05-08T00:19:06;102087.63;;;19.92;61.60
59190;BME280;50749;51.636;4.948;2023-05-08T00:21:31;102094.78;;;19.93;61.82
59190;BME280;50749;51.636;4.948;2023-05-08T00:23:57;102094.31;;;19.91;61.85
59190;BME280;50749;51.636;4.948;2023-05-08T00:26:23;102095.97;;;19.92;61.61
59190;BME280;50749;51.636;4.948;2023-05-08T00:28:49;102093.53;;;19.91;61.45
59190;BME280;50749;51.636;4.948;2023-05-08T00:31:15;102097.09;;;19.91;61.80
59190;BME280;50749;51.636;4.948;2023-05-08T00:33:41;102087.13;;;19.90;61.63
59190;BME280;50749;51.636;4.948;2023-05-08T00:36:06;102091.09;;;19.89;61.80
59190;BME280;50749;51.636;4.948;2023-05-08T00:38:33;102085.88;;;19.88;61.86
59190;BME280;50749;51.636;4.948;2023-05-08T00:41:00;102092.22;;;19.88;61.56
59190;BME280;50749;51.636;4.948;2023-05-08T00:43:26;102097.78;;;19.88;61.66
59190;BME280;50749;51.636;4.948;2023-05-08T00:45:58;102092.22;;;19.88;61.88
59190;BME280;50749;51.636;4.948;2023-05-08T00:48:31;102099.75;;;19.88;61.35
59190;BME280;50749;51.636;4.948;2023-05-08T00:50:59;102089.00;;;19.86;61.52
59190;BME280;50749;51.636;4.948;2023-05-08T00:53:26;102089.00;;;19.86;61.82
59190;BME280;50749;51.636;4.948;2023-05-08T00:55:53;102089.00;;;19.86;61.32
59190;BME280;50749;51.636;4.948;2023-05-08T00:58:23;102092.91;;;19.85;61.35
59190;BME280;50749;51.636;4.948;2023-05-08T01:00:51;102098.44;;;19.85;61.63
59190;BME280;50749;51.636;4.948;2023-05-08T01:03:21;102094.06;;;19.84;61.35
59190;BME280;50749;51.636;4.948;2023-05-08T01:05:47;102088.53;;;19.84;61.53
59190;BME280;50749;51.636;4.948;2023-05-08T01:08:13;102089.66;;;19.83;61.53
59190;BME280;50749;51.636;4.948;2023-05-08T01:11:32;102086.09;;;19.82;61.47
59190;BME280;50749;51.636;4.948;2023-05-08T01:16:47;102084.47;;;19.81;61.50
59190;BME280;50749;51.636;4.948;2023-05-08T01:19:41;102083.31;;;19.82;61.56
59190;BME280;50749;51.636;4.948;2023-05-08T01:25:22;102079.25;;;19.80;61.33
59190;BME280;50749;51.636;4.948;2023-05-08T01:28:07;102088.75;;;19.79;61.88
59190;BME280;50749;51.636;4.948;2023-05-08T01:33:20;102087.91;;;19.78;61.83
59190;BME280;50749;51.636;4.948;2023-05-08T01:35:55;102085.47;;;19.77;61.37
59190;BME280;50749;51.636;4.948;2023-05-08T01:38:31;102093.78;;;19.77;61.49
59190;BME280;50749;51.636;4.948;2023-05-08T01:41:16;102101.31;;;19.76;61.81
59190;BME280;50749;51.636;4.948;2023-05-08T01:43:51;102106.06;;;19.76;61.55
59190;BME280;50749;51.636;4.948;2023-05-08T01:46:23;102103.59;;;19.74;61.91
59190;BME280;50749;51.636;4.948;2023-05-08T01:49:02;102113.88;;;19.74;61.41
59190;BME280;50749;51.636;4.948;2023-05-08T01:51:36;102107.84;;;19.72;62.02
59190;BME280;50749;51.636;4.948;2023-05-08T01:54:05;102114.56;;;19.71;61.45
59190;BME280;50749;51.636;4.948;2023-05-08T01:56:33;102119.28;;;19.70;61.80
59190;BME280;50749;51.636;4.948;2023-05-08T01:59:01;102116.84;;;19.68;61.49
59190;BME280;50749;51.636;4.948;2023-05-08T02:01:29;102122.41;;;19.68;61.55
59190;BME280;50749;51.636;4.948;2023-05-08T02:03:59;102122.41;;;19.68;61.75
59190;BME280;50749;51.636;4.948;2023-05-08T02:06:26;102120.78;;;19.67;61.91
59190;BME280;50749;51.636;4.948;2023-05-08T02:08:55;102122.41;;;19.68;61.92
59190;BME280;50749;51.636;4.948;2023-05-08T02:11:22;102123.56;;;19.67;61.49
59190;BME280;50749;51.636;4.948;2023-05-08T02:13:50;102119.16;;;19.66;61.91
59190;BME280;50749;51.636;4.948;2023-05-08T02:16:17;102124.69;;;19.66;61.61
59190;BME280;50749;51.636;4.948;2023-05-08T02:18:50;102123.09;;;19.65;61.45
59190;BME280;50749;51.636;4.948;2023-05-08T02:21:17;102128.31;;;19.67;61.42
59190;BME280;50749;51.636;4.948;2023-05-08T02:23:44;102119.16;;;19.66;61.71
59190;BME280;50749;51.636;4.948;2023-05-08T02:26:15;102127.47;;;19.66;61.58
59190;BME280;50749;51.636;4.948;2023-05-08T02:28:41;102121.94;;;19.66;61.56
59190;BME280;50749;51.636;4.948;2023-05-08T02:31:09;102121.94;;;19.66;61.76
59190;BME280;50749;51.636;4.948;2023-05-08T02:33:37;102121.13;;;19.66;61.92
59190;BME280;50749;51.636;4.948;2023-05-08T02:36:05;102117.53;;;19.65;61.23
59190;BME280;50749;51.636;4.948;2023-05-08T02:38:32;102121.47;;;19.64;61.51
59190;BME280;50749;51.636;4.948;2023-05-08T02:41:01;102120.31;;;19.65;61.37
59190;BME280;50749;51.636;4.948;2023-05-08T02:43:27;102126.22;;;19.64;61.56
59190;BME280;50749;51.636;4.948;2023-05-08T02:48:37;102121.78;;;19.63;61.44
59190;BME280;50749;51.636;4.948;2023-05-08T02:51:10;102124.91;;;19.61;61.27
59190;BME280;50749;51.636;4.948;2023-05-08T02:53:45;102112.22;;;19.60;61.61
59190;BME280;50749;51.636;4.948;2023-05-08T02:59:14;102109.78;;;19.59;61.33
59190;BME280;50749;51.636;4.948;2023-05-08T03:01:51;102106.66;;;19.60;61.74
59190;BME280;50749;51.636;4.948;2023-05-08T03:04:50;102100.63;;;19.58;61.27
59190;BME280;50749;51.636;4.948;2023-05-08T03:07:24;102100.63;;;19.58;61.80
59190;BME280;50749;51.636;4.948;2023-05-08T03:09:56;102101.44;;;19.59;61.54
59190;BME280;50749;51.636;4.948;2023-05-08T03:12:25;102100.63;;;19.58;61.76
59190;BME280;50749;51.636;4.948;2023-05-08T03:15:05;102106.16;;;19.58;61.67
59190;BME280;50749;51.636;4.948;2023-05-08T03:17:32;102100.16;;;19.56;61.69
59190;BME280;50749;51.636;4.948;2023-05-08T03:20:03;102099.34;;;19.56;61.72
59190;BME280;50749;51.636;4.948;2023-05-08T03:22:31;102094.94;;;19.55;61.60
59190;BME280;50749;51.636;4.948;2023-05-08T03:25:00;102096.09;;;19.54;61.60
59190;BME280;50749;51.636;4.948;2023-05-08T03:27:28;102097.25;;;19.53;61.35
59190;BME280;50749;51.636;4.948;2023-05-08T03:29:55;102097.25;;;19.53;61.88
59190;BME280;50749;51.636;4.948;2023-05-08T03:32:25;102098.38;;;19.52;61.62
59190;BME280;50749;51.636;4.948;2023-05-08T03:34:51;102101.50;;;19.50;61.56
59190;BME280;50749;51.636;4.948;2023-05-08T03:37:17;102100.34;;;19.51;61.63
59190;BME280;50749;51.636;4.948;2023-05-08T03:39:44;102098.72;;;19.50;61.64
59190;BME280;50749;51.636;4.948;2023-05-08T03:42:10;102103.13;;;19.51;61.83
59190;BME280;50749;51.636;4.948;2023-05-08T03:44:48;102101.50;;;19.50;61.86
59190;BME280;50749;51.636;4.948;2023-05-08T03:47:16;102102.66;;;19.49;61.58
59190;BME280;50749;51.636;4.948;2023-05-08T03:49:44;102109.81;;;19.50;61.35
59190;BME280;50749;51.636;4.948;2023-05-08T03:52:12;102102.66;;;19.49;61.54
59190;BME280;50749;51.636;4.948;2023-05-08T03:54:37;102097.13;;;19.49;61.62
59190;BME280;50749;51.636;4.948;2023-05-08T03:57:03;102094.69;;;19.47;61.71
59190;BME280;50749;51.636;4.948;2023-05-08T03:59:37;102103.81;;;19.48;61.77
59190;BME280;50749;51.636;4.948;2023-05-08T04:02:13;102104.97;;;19.47;61.53
59190;BME280;50749;51.636;4.948;2023-05-08T04:04:44;102100.22;;;19.47;61.65
59190;BME280;50749;51.636;4.948;2023-05-08T04:07:41;102103.00;;;19.47;61.92
59190;BME280;50749;51.636;4.948;2023-05-08T04:10:16;102116.06;;;19.47;61.51
59190;BME280;50749;51.636;4.948;2023-05-08T04:15:22;102120.78;;;19.46;61.69
59190;BME280;50749;51.636;4.948;2023-05-08T04:17:52;102115.56;;;19.45;61.39
59190;BME280;50749;51.636;4.948;2023-05-08T04:20:21;102110.38;;;19.43;61.91
59190;BME280;50749;51.636;4.948;2023-05-08T04:22:50;102120.66;;;19.43;62.15
59190;BME280;50749;51.636;4.948;2023-05-08T04:25:17;102118.53;;;19.40;61.95
59190;BME280;50749;51.636;4.948;2023-05-08T04:27:45;102112.53;;;19.38;62.02
59190;BME280;50749;51.636;4.948;2023-05-08T04:30:11;102117.59;;;19.36;62.63
59190;BME280;50749;51.636;4.948;2023-05-08T04:32:38;102116.31;;;19.33;62.70
59190;BME280;50749;51.636;4.948;2023-05-08T04:35:04;102125.44;;;19.34;62.70
59190;BME280;50749;51.636;4.948;2023-05-08T04:37:30;102119.91;;;19.34;62.48
59190;BME280;50749;51.636;4.948;2023-05-08T04:39:57;102122.69;;;19.34;62.26
59190;BME280;50749;51.636;4.948;2023-05-08T04:42:23;102127.38;;;19.33;62.43
59190;BME280;50749;51.636;4.948;2023-05-08T04:44:50;102128.91;;;19.30;62.61
59190;BME280;50749;51.636;4.948;2023-05-08T04:47:16;102126.13;;;19.30;62.46
59190;BME280;50749;51.636;4.948;2023-05-08T04:49:42;102121.72;;;19.29;62.52
59190;BME280;50749;51.636;4.948;2023-05-08T04:52:08;102129.09;;;19.25;62.71
59190;BME280;50749;51.636;4.948;2023-05-08T04:54:34;102127.47;;;19.24;62.74
59190;BME280;50749;51.636;4.948;2023-05-08T04:57:00;102132.53;;;19.22;62.75
59190;BME280;50749;51.636;4.948;2023-05-08T04:59:26;102134.50;;;19.22;62.83
59190;BME280;50749;51.636;4.948;2023-05-08T05:01:52;102136.78;;;19.20;62.76
59190;BME280;50749;51.636;4.948;2023-05-08T05:04:18;102143.94;;;19.21;62.98
59190;BME280;50749;51.636;4.948;2023-05-08T05:06:44;102144.44;;;19.23;62.79
59190;BME280;50749;51.636;4.948;2023-05-08T05:09:10;102152.06;;;19.26;62.94
59190;BME280;50749;51.636;4.948;2023-05-08T05:11:36;102152.53;;;19.28;63.12
59190;BME280;50749;51.636;4.948;2023-05-08T05:14:02;102152.53;;;19.28;62.70
59190;BME280;50749;51.636;4.948;2023-05-08T05:16:28;102151.75;;;19.27;62.53
59190;BME280;50749;51.636;4.948;2023-05-08T05:18:54;102156.94;;;19.29;62.54
59190;BME280;50749;51.636;4.948;2023-05-08T05:21:19;102157.75;;;19.29;62.16
59190;BME280;50749;51.636;4.948;2023-05-08T05:23:45;102161.69;;;19.28;62.58
59190;BME280;50749;51.636;4.948;2023-05-08T05:26:11;102166.91;;;19.30;62.24
59190;BME280;50749;51.636;4.948;2023-05-08T05:28:39;102170.16;;;19.32;62.12
59190;BME280;50749;51.636;4.948;2023-05-08T05:31:04;102172.91;;;19.32;62.43
59190;BME280;50749;51.636;4.948;2023-05-08T05:33:32;102174.88;;;19.31;62.44
59190;BME280;50749;51.636;4.948;2023-05-08T05:35:58;102176.50;;;19.33;62.44
59190;BME280;50749;51.636;4.948;2023-05-08T05:38:25;102174.88;;;19.31;62.07
59190;BME280;50749;51.636;4.948;2023-05-08T05:40:52;102181.25;;;19.32;62.16
59190;BME280;50749;51.636;4.948;2023-05-08T05:43:20;102187.59;;;19.33;62.04
59190;BME280;50749;51.636;4.948;2023-05-08T05:45:48;102174.53;;;19.33;62.12
59190;BME280;50749;51.636;4.948;2023-05-08T05:48:15;102180.06;;;19.33;62.29
59190;BME280;50749;51.636;4.948;2023-05-08T05:50:41;102180.91;;;19.34;62.41
59190;BME280;50749;51.636;4.948;2023-05-08T05:53:07;102183.69;;;19.34;61.98
59190;BME280;50749;51.636;4.948;2023-05-08T05:55:36;102187.25;;;19.34;62.25
59190;BME280;50749;51.636;4.948;2023-05-08T05:58:02;102197.88;;;19.32;62.36
59190;BME280;50749;51.636;4.948;2023-05-08T06:00:27;102198.69;;;19.33;62.06
59190;BME280;50749;51.636;4.948;2023-05-08T06:02:55;102185.16;;;19.31;62.26
59190;BME280;50749;51.636;4.948;2023-05-08T06:05:22;102197.03;;;19.31;62.15
59190;BME280;50749;51.636;4.948;2023-05-08T06:07:48;102194.28;;;19.31;62.52
59190;BME280;50749;51.636;4.948;2023-05-08T06:10:15;102197.88;;;19.32;62.37
59190;BME280;50749;51.636;4.948;2023-05-08T06:12:41;102203.41;;;19.32;62.57
59190;BME280;50749;51.636;4.948;2023-05-08T06:15:07;102202.59;;;19.31;62.07
59190;BME280;50749;51.636;4.948;2023-05-08T06:17:34;102203.41;;;19.32;62.08
59190;BME280;50749;51.636;4.948;2023-05-08T06:20:00;102212.06;;;19.30;62.63
59190;BME280;50749;51.636;4.948;2023-05-08T06:22:26;102203.75;;;19.30;62.38
59190;BME280;50749;51.636;4.948;2023-05-08T06:24:53;102208.50;;;19.30;62.10
59190;BME280;50749;51.636;4.948;2023-05-08T06:27:20;102204.88;;;19.29;62.11
59190;BME280;50749;51.636;4.948;2023-05-08T06:29:47;102208.81;;;19.28;62.38
59190;BME280;50749;51.636;4.948;2023-05-08T06:32:15;102213.22;;;19.29;62.17
59190;BME280;50749;51.636;4.948;2023-05-08T06:34:41;102215.97;;;19.29;62.33
59190;BME280;50749;51.636;4.948;2023-05-08T06:37:07;102221.53;;;19.29;62.26
59190;BME280;50749;51.636;4.948;2023-05-08T06:39:32;102227.06;;;19.29;62.43
59190;BME280;50749;51.636;4.948;2023-05-08T06:41:58;102224.78;;;19.31;62.61
59190;BME280;50749;51.636;4.948;2023-05-08T06:44:24;102215.66;;;19.31;62.50
59190;BME280;50749;51.636;4.948;2023-05-08T06:46:50;102214.50;;;19.32;62.74
59190;BME280;50749;51.636;4.948;2023-05-08T06:49:16;102204.56;;;19.31;62.51
59190;BME280;50749;51.636;4.948;2023-05-08T06:51:42;102205.03;;;19.33;62.68
59190;BME280;50749;51.636;4.948;2023-05-08T06:54:07;102205.88;;;19.34;62.58
59190;BME280;50749;51.636;4.948;2023-05-08T06:56:34;102196.38;;;19.35;62.66
59190;BME280;50749;51.636;4.948;2023-05-08T06:59:00;102209.09;;;19.36;62.65
59190;BME280;50749;51.636;4.948;2023-05-08T07:01:26;102207.97;;;19.37;62.36
59190;BME280;50749;51.636;4.948;2023-05-08T07:03:52;102208.44;;;19.39;63.04
59190;BME280;50749;51.636;4.948;2023-05-08T07:06:18;102206.94;;;19.41;63.09
59190;BME280;50749;51.636;4.948;2023-05-08T07:08:44;102213.31;;;19.42;62.74
59190;BME280;50749;51.636;4.948;2023-05-08T07:11:10;102209.72;;;19.41;63.00
59190;BME280;50749;51.636;4.948;2023-05-08T07:13:36;102206.13;;;19.41;63.25
59190;BME280;50749;51.636;4.948;2023-05-08T07:16:02;102205.81;;;19.42;62.81
59190;BME280;50749;51.636;4.948;2023-05-08T07:18:29;102205.81;;;19.42;62.84
59190;BME280;50749;51.636;4.948;2023-05-08T07:20:55;102199.13;;;19.43;63.01
59190;BME280;50749;51.636;4.948;2023-05-08T07:23:21;102205.47;;;19.44;62.71
59190;BME280;50749;51.636;4.948;2023-05-08T07:25:47;102212.63;;;19.45;62.72
59190;BME280;50749;51.636;4.948;2023-05-08T07:28:13;102203.16;;;19.46;62.77
59190;BME280;50749;51.636;4.948;2023-05-08T07:30:38;102202.38;;;19.45;63.19
59190;BME280;50749;51.636;4.948;2023-05-08T07:33:04;102200.06;;;19.47;62.90
59190;BME280;50749;51.636;4.948;2023-05-08T07:35:30;102203.63;;;19.48;63.08
59190;BME280;50749;51.636;4.948;2023-05-08T07:37:56;102206.09;;;19.49;62.84
59190;BME280;50749;51.636;4.948;2023-05-08T07:40:22;102202.50;;;19.49;62.93
59190;BME280;50749;51.636;4.948;2023-05-08T07:42:53;102201.69;;;19.48;63.00
59190;BME280;50749;51.636;4.948;2023-05-08T07:45:19;102198.56;;;19.50;62.82
59190;BME280;50749;51.636;4.948;2023-05-08T07:47:53;102194.19;;;19.49;62.39
59190;BME280;50749;51.636;4.948;2023-05-08T07:50:21;102191.75;;;19.47;62.83
59190;BME280;50749;51.636;4.948;2023-05-08T07:52:47;102198.09;;;19.48;63.13
59190;BME280;50749;51.636;4.948;2023-05-08T07:55:13;102200.88;;;19.48;62.98
59190;BME280;50749;51.636;4.948;2023-05-08T07:57:40;102200.88;;;19.48;63.24
59190;BME280;50749;51.636;4.948;2023-05-08T08:00:11;102192.22;;;19.49;63.08
59190;BME280;50749;51.636;4.948;2023-05-08T08:02:37;102196.97;;;19.49;63.15
59190;BME280;50749;51.636;4.948;2023-05-08T08:05:04;102191.41;;;19.49;63.38
59190;BME280;50749;51.636;4.948;2023-05-08T08:07:30;102200.19;;;19.51;63.05
59190;BME280;50749;51.636;4.948;2023-05-08T08:09:58;102205.75;;;19.51;63.21
59190;BME280;50749;51.636;4.948;2023-05-08T08:12:24;102195.78;;;19.50;63.13
59190;BME280;50749;51.636;4.948;2023-05-08T08:14:50;102201.34;;;19.50;63.08
59190;BME280;50749;51.636;4.948;2023-05-08T08:17:16;102205.75;;;19.51;62.87
59190;BME280;50749;51.636;4.948;2023-05-08T08:19:45;102202.16;;;19.51;62.84
59190;BME280;50749;51.636;4.948;2023-05-08T08:22:13;102205.75;;;19.51;63.06
59190;BME280;50749;51.636;4.948;2023-05-08T08:24:40;102201.00;;;19.52;63.02
59190;BME280;50749;51.636;4.948;2023-05-08T08:27:08;102203.44;;;19.53;62.76
59190;BME280;50749;51.636;4.948;2023-05-08T08:29:34;102209.00;;;19.53;63.08
59190;BME280;50749;51.636;4.948;2023-05-08T08:32:02;102209.50;;;19.55;62.88
59190;BME280;50749;51.636;4.948;2023-05-08T08:34:28;102209.13;;;19.57;62.75
59190;BME280;50749;51.636;4.948;2023-05-08T08:36:54;102206.84;;;19.59;62.85
59190;BME280;50749;51.636;4.948;2023-05-08T08:39:20;102199.34;;;19.59;62.70
59190;BME280;50749;51.636;4.948;2023-05-08T08:41:46;102209.63;;;19.59;62.64
59190;BME280;50749;51.636;4.948;2023-05-08T08:44:12;102200.97;;;19.60;62.69
59190;BME280;50749;51.636;4.948;2023-05-08T08:46:49;102194.59;;;19.60;62.39
59190;BME280;50749;51.636;4.948;2023-05-08T08:49:30;102205.03;;;19.63;62.67
59190;BME280;50749;51.636;4.948;2023-05-08T08:52:06;102197.50;;;19.63;62.35
59190;BME280;50749;51.636;4.948;2023-05-08T08:54:36;102201.91;;;19.64;62.75
59190;BME280;50749;51.636;4.948;2023-05-08T08:57:04;102201.56;;;19.66;62.83
59190;BME280;50749;51.636;4.948;2023-05-08T08:59:36;102209.56;;;19.67;62.40
59190;BME280;50749;51.636;4.948;2023-05-08T09:02:08;102205.63;;;19.68;62.40
59190;BME280;50749;51.636;4.948;2023-05-08T09:04:36;102195.34;;;19.69;62.19
59190;BME280;50749;51.636;4.948;2023-05-08T09:07:03;102205.28;;;19.70;62.55
59190;BME280;50749;51.636;4.948;2023-05-08T09:09:31;102204.94;;;19.72;62.44
59190;BME280;50749;51.636;4.948;2023-05-08T09:11:58;102198.59;;;19.71;62.12
59190;BME280;50749;51.636;4.948;2023-05-08T09:14:27;102212.47;;;19.71;62.15
59190;BME280;50749;51.636;4.948;2023-05-08T09:16:53;102205.78;;;19.72;62.38
59190;BME280;50749;51.636;4.948;2023-05-08T09:19:20;102204.16;;;19.71;62.13
59190;BME280;50749;51.636;4.948;2023-05-08T09:21:45;102206.13;;;19.71;62.19
59190;BME280;50749;51.636;4.948;2023-05-08T09:24:13;102214.44;;;19.71;62.28
59190;BME280;50749;51.636;4.948;2023-05-08T09:26:40;102216.03;;;19.72;62.17
59190;BME280;50749;51.636;4.948;2023-05-08T09:29:14;102209.69;;;19.71;62.23
59190;BME280;50749;51.636;4.948;2023-05-08T09:31:43;102212.13;;;19.73;62.69
59190;BME280;50749;51.636;4.948;2023-05-08T09:34:24;102202.69;;;19.74;62.70
59190;BME280;50749;51.636;4.948;2023-05-08T09:36:51;102198.75;;;19.75;62.72
59190;BME280;50749;51.636;4.948;2023-05-08T09:39:24;102190.09;;;19.76;62.53
59190;BME280;50749;51.636;4.948;2023-05-08T09:44:23;102192.00;;;19.84;62.37
59190;BME280;50749;51.636;4.948;2023-05-08T09:46:49;102196.88;;;19.88;62.13
59190;BME280;50749;51.636;4.948;2023-05-08T09:49:18;102191.78;;;19.90;62.23
59190;BME280;50749;51.636;4.948;2023-05-08T09:51:51;102197.00;;;19.91;62.33
59190;BME280;50749;51.636;4.948;2023-05-08T09:54:18;102197.94;;;19.95;62.10
59190;BME280;50749;51.636;4.948;2023-05-08T09:56:44;102201.22;;;19.97;61.60
59190;BME280;50749;51.636;4.948;2023-05-08T09:59:27;102200.50;;;20.00;61.83
59190;BME280;50749;51.636;4.948;2023-05-08T10:01:54;102196.59;;;20.01;61.82
59190;BME280;50749;51.636;4.948;2023-05-08T10:04:31;102208.16;;;20.03;61.59
59190;BME280;50749;51.636;4.948;2023-05-08T10:06:57;102193.59;;;20.07;61.66
59190;BME280;50749;51.636;4.948;2023-05-08T10:09:24;102195.25;;;20.08;61.79
59190;BME280;50749;51.636;4.948;2023-05-08T10:11:50;102198.81;;;20.08;61.53
59190;BME280;50749;51.636;4.948;2023-05-08T10:14:20;102196.84;;;20.09;61.51
59190;BME280;50749;51.636;4.948;2023-05-08T10:16:47;102196.03;;;20.08;61.55
59190;BME280;50749;51.636;4.948;2023-05-08T10:19:18;102200.78;;;20.08;61.80
59190;BME280;50749;51.636;4.948;2023-05-08T10:21:49;102195.72;;;20.10;61.45
59190;BME280;50749;51.636;4.948;2023-05-08T10:24:20;102200.13;;;20.11;61.66
59190;BME280;50749;51.636;4.948;2023-05-08T10:27:19;102195.84;;;20.13;61.22
59190;BME280;50749;51.636;4.948;2023-05-08T10:29:53;102193.84;;;20.14;61.60
59190;BME280;50749;51.636;4.948;2023-05-08T10:32:23;102194.69;;;20.14;61.29
59190;BME280;50749;51.636;4.948;2023-05-08T10:34:52;102189.94;;;20.15;61.35
59190;BME280;50749;51.636;4.948;2023-05-08T10:37:20;102192.38;;;20.16;61.50
59190;BME280;50749;51.636;4.948;2023-05-08T10:39:47;102190.75;;;20.15;61.22
59190;BME280;50749;51.636;4.948;2023-05-08T10:42:14;102197.94;;;20.16;61.19
59190;BME280;50749;51.636;4.948;2023-05-08T10:44:40;102181.28;;;20.16;61.30
59190;BME280;50749;51.636;4.948;2023-05-08T10:47:10;102183.38;;;20.19;61.55
59190;BME280;50749;51.636;4.948;2023-05-08T10:55:05;102179.91;;;20.22;61.41
59190;BME280;50749;51.636;4.948;2023-05-08T10:57:34;102186.28;;;20.23;61.24
59190;BME280;50749;51.636;4.948;2023-05-08T11:00:00;102183.16;;;20.25;60.92
59190;BME280;50749;51.636;4.948;2023-05-08T11:02:29;102181.53;;;20.23;61.22
59190;BME280;50749;51.636;4.948;2023-05-08T11:05:16;102182.69;;;20.22;61.04
59190;BME280;50749;51.636;4.948;2023-05-08T11:07:56;102182.69;;;20.22;61.29
59190;BME280;50749;51.636;4.948;2023-05-08T11:10:28;102180.25;;;20.21;61.17
59190;BME280;50749;51.636;4.948;2023-05-08T11:12:55;102176.66;;;20.20;60.98
59190;BME280;50749;51.636;4.948;2023-05-08T11:15:39;102162.78;;;20.20;60.94
59190;BME280;50749;51.636;4.948;2023-05-08T11:18:10;102166.38;;;20.21;61.16
59190;BME280;50749;51.636;4.948;2023-05-08T11:20:41;102161.97;;;20.20;61.02
59190;BME280;50749;51.636;4.948;2023-05-08T11:23:26;102157.56;;;20.19;61.27
59190;BME280;50749;51.636;4.948;2023-05-08T11:26:12;102166.25;;;20.17;60.93
59190;BME280;50749;51.636;4.948;2023-05-08T11:28:57;102165.41;;;20.17;61.19
59190;BME280;50749;51.636;4.948;2023-05-08T11:31:23;102155.16;;;20.17;61.28
59190;BME280;50749;51.636;4.948;2023-05-08T11:33:49;102165.41;;;20.17;60.83
59190;BME280;50749;51.636;4.948;2023-05-08T11:36:19;102161.50;;;20.18;61.04
59190;BME280;50749;51.636;4.948;2023-05-08T11:39:08;102157.91;;;20.17;60.98
59190;BME280;50749;51.636;4.948;2023-05-08T11:41:37;102157.91;;;20.17;60.77
59190;BME280;50749;51.636;4.948;2023-05-08T11:46:41;102159.88;;;20.17;60.99
59190;BME280;50749;51.636;4.948;2023-05-08T11:49:12;102160.69;;;20.17;61.04
59190;BME280;50749;51.636;4.948;2023-05-08T11:51:40;102153.16;;;20.18;61.35
59190;BME280;50749;51.636;4.948;2023-05-08T11:54:14;102150.41;;;20.18;60.97
59190;BME280;50749;51.636;4.948;2023-05-08T11:56:41;102148.75;;;20.17;60.98
59190;BME280;50749;51.636;4.948;2023-05-08T11:59:09;102149.59;;;20.17;61.08
59190;BME280;50749;51.636;4.948;2023-05-08T12:01:35;102144.84;;;20.18;60.72
59190;BME280;50749;51.636;4.948;2023-05-08T12:04:03;102143.22;;;20.17;60.78
59190;BME280;50749;51.636;4.948;2023-05-08T12:06:30;102143.22;;;20.17;61.20
59190;BME280;50749;51.636;4.948;2023-05-08T12:08:57;102145.97;;;20.17;60.57
59190;BME280;50749;51.636;4.948;2023-05-08T12:11:24;102138.00;;;20.15;61.03
59190;BME280;50749;51.636;4.948;2023-05-08T12:13:51;102148.75;;;20.17;60.57
59190;BME280;50749;51.636;4.948;2023-05-08T12:16:17;102142.41;;;20.16;61.11
59190;BME280;50749;51.636;4.948;2023-05-08T12:18:44;102138.81;;;20.16;60.92
59190;BME280;50749;51.636;4.948;2023-05-08T12:21:10;102134.88;;;20.17;60.96
59190;BME280;50749;51.636;4.948;2023-05-08T12:23:36;102128.53;;;20.16;60.69
59190;BME280;50749;51.636;4.948;2023-05-08T12:26:03;102130.50;;;20.16;60.50
59190;BME280;50749;51.636;4.948;2023-05-08T12:28:29;102132.94;;;20.17;60.86
59190;BME280;50749;51.636;4.948;2023-05-08T12:30:57;102139.28;;;20.18;61.00
59190;BME280;50749;51.636;4.948;2023-05-08T12:33:23;102139.28;;;20.18;60.55
59190;BME280;50749;51.636;4.948;2023-05-08T12:35:49;102132.56;;;20.19;60.78
59190;BME280;50749;51.636;4.948;2023-05-08T12:38:15;102128.19;;;20.18;60.71
59190;BME280;50749;51.636;4.948;2023-05-08T12:40:42;102134.53;;;20.18;60.35
59190;BME280;50749;51.636;4.948;2023-05-08T12:43:08;102132.56;;;20.19;60.61
59190;BME280;50749;51.636;4.948;2023-05-08T12:45:39;102128.66;;;20.20;60.89
59190;BME280;50749;51.636;4.948;2023-05-08T12:48:08;102123.09;;;20.20;60.59
59190;BME280;50749;51.636;4.948;2023-05-08T12:50:39;102115.09;;;20.18;60.75
59190;BME280;50749;51.636;4.948;2023-05-08T12:53:10;102118.69;;;20.19;60.70
59190;BME280;50749;51.636;4.948;2023-05-08T12:55:38;102118.69;;;20.19;60.45
59190;BME280;50749;51.636;4.948;2023-05-08T12:58:09;102111.53;;;20.18;60.33
59190;BME280;50749;51.636;4.948;2023-05-08T13:00:42;102111.53;;;20.18;60.78
59190;BME280;50749;51.636;4.948;2023-05-08T13:03:10;102112.34;;;20.18;60.88
59190;BME280;50749;51.636;4.948;2023-05-08T13:05:41;102111.53;;;20.18;60.78
59190;BME280;50749;51.636;4.948;2023-05-08T13:08:08;102112.34;;;20.18;60.84
59190;BME280;50749;51.636;4.948;2023-05-08T13:10:48;102110.34;;;20.19;60.62
59190;BME280;50749;51.636;4.948;2023-05-08T13:13:19;102107.56;;;20.19;60.32
59190;BME280;50749;51.636;4.948;2023-05-08T13:15:46;102104.81;;;20.19;60.31
59190;BME280;50749;51.636;4.948;2023-05-08T13:18:12;102105.63;;;20.19;60.81
59190;BME280;50749;51.636;4.948;2023-05-08T13:20:40;102107.56;;;20.19;60.31
59190;BME280;50749;51.636;4.948;2023-05-08T13:23:06;102096.47;;;20.19;60.78
59190;BME280;50749;51.636;4.948;2023-05-08T13:25:34;102100.09;;;20.19;60.70
59190;BME280;50749;51.636;4.948;2023-05-08T13:28:07;102101.22;;;20.18;60.39